Portada
METAR-TAF:

METAR-TAF

Aeropuertos :

Ankeny Regional Airport

Ankeny, Iowa, Estados Unidos

latitud: 41-41-24N, longitud: 093-33-57W, altitud: 275 m

Observación

El informe se hizo hace 28 minutos, a las 05:15 UTC
Viento calma
Temperatura 16°C
Humedad 82%
Presión 1025 hPa
Visibilidad: 16.1 km
Cielo nuboso a una altura de 10000 ft
Cielo nuboso a una altura de 12000 ft

METAR: KIKV 310515Z AUTO 00000KT 10SM BKN100 BKN120 16/13 A3026 RMK AO2

Hora: 00:43 (05:43 UTC)


TAF: falta

Observaciones y pronósticos meteorológicos de más de 4000 aeropuertos (mensajes METAR y TAF).

Los puntos amarillos y rojos representan las estaciones disponibles.

Ponga el ratón en el punto deseado para ver el nombre de la estación.

Haga clic para ver las observaciones y los pronósticos meteorológicos.

Para cambiar el mapa : haga clic en los botones verdes con una cruz de color negro para hacer un zoom, en el botón verde con un guión para alejar o en las flechas verdes para mapas adyacentes.


METAR-TAF: